createdAt,value
2019-03-26T00:01:22.242Z,101700.31
2019-03-26T00:04:05.252Z,101697.04
2019-03-26T00:06:30.793Z,101702.19
2019-03-26T00:09:07.012Z,101699.95
2019-03-26T00:11:40.507Z,101703.09
2019-03-26T00:14:13.913Z,101700.41
2019-03-26T00:16:47.368Z,101710.69
2019-03-26T00:19:20.709Z,101708.63
2019-03-26T00:21:54.532Z,101713.03
2019-03-26T00:24:28.085Z,101711.08
2019-03-26T00:27:01.524Z,101708.22
2019-03-26T00:29:34.980Z,101701.98
2019-03-26T00:32:09.468Z,101711.91
2019-03-26T00:34:42.829Z,101716.10
2019-03-26T00:37:16.320Z,101718.27
2019-03-26T00:39:49.754Z,101712.58
2019-03-26T00:42:23.186Z,101710.98
2019-03-26T00:44:56.684Z,101711.55
2019-03-26T00:47:30.383Z,101706.22
2019-03-26T00:50:04.811Z,101709.69
2019-03-26T00:52:38.229Z,101703.00
2019-03-26T00:55:21.926Z,101708.50
2019-03-26T00:57:47.061Z,101715.36
2019-03-26T01:00:29.278Z,101711.17
2019-03-26T01:03:02.717Z,101709.98
2019-03-26T01:05:36.277Z,101715.98
2019-03-26T01:08:09.785Z,101713.02
2019-03-26T01:10:43.296Z,101721.06
2019-03-26T01:13:16.671Z,101708.96
2019-03-26T01:15:50.046Z,101709.42
2019-03-26T01:18:23.458Z,101707.86
2019-03-26T01:20:56.969Z,101710.66
2019-03-26T01:23:30.392Z,101713.80
2019-03-26T01:26:03.828Z,101713.02
2019-03-26T01:28:37.162Z,101713.02
2019-03-26T01:31:10.549Z,101720.22
2019-03-26T01:33:43.876Z,101718.42
2019-03-26T01:36:17.343Z,101716.77
2019-03-26T01:38:50.682Z,101716.89
2019-03-26T01:41:24.269Z,101720.83
2019-03-26T01:43:57.617Z,101720.83
2019-03-26T01:46:31.128Z,101710.64
2019-03-26T01:49:04.520Z,101704.80
2019-03-26T01:51:37.955Z,101704.80
2019-03-26T01:54:11.426Z,101713.30
2019-03-26T01:56:44.871Z,101723.85
2019-03-26T01:59:18.379Z,101705.95
2019-03-26T02:01:51.762Z,101706.04
2019-03-26T02:04:25.387Z,101714.07
2019-03-26T02:06:58.763Z,101712.77
2019-03-26T02:09:32.165Z,101716.53
2019-03-26T02:12:05.697Z,101716.16
2019-03-26T02:14:39.252Z,101716.16
2019-03-26T02:17:12.796Z,101716.07
2019-03-26T02:19:46.430Z,101721.58
2019-03-26T02:22:20.156Z,101720.73
2019-03-26T02:24:53.667Z,101729.25
2019-03-26T02:27:27.092Z,101719.55
2019-03-26T02:30:00.475Z,101717.47
2019-03-26T02:32:33.831Z,101720.48
2019-03-26T02:35:17.628Z,101717.58
2019-03-26T02:37:42.561Z,101718.91
2019-03-26T02:40:16.163Z,101708.33
2019-03-26T02:42:49.838Z,101705.50
2019-03-26T02:45:23.388Z,101708.86
2019-03-26T02:47:57.044Z,101708.86
2019-03-26T02:50:30.507Z,101708.13
2019-03-26T02:53:08.407Z,101702.95
2019-03-26T02:55:39.666Z,101716.53
2019-03-26T02:58:13.105Z,101694.92
2019-03-26T03:00:46.680Z,101694.92
2019-03-26T03:03:20.330Z,101696.28
2019-03-26T03:05:53.776Z,101699.25
2019-03-26T03:08:27.919Z,101699.25
2019-03-26T03:11:01.519Z,101701.84
2019-03-26T03:13:35.131Z,101705.24
2019-03-26T03:16:08.732Z,101689.55
2019-03-26T03:18:42.255Z,101697.21
2019-03-26T03:21:15.839Z,101708.61
2019-03-26T03:23:49.291Z,101705.44
2019-03-26T03:26:22.749Z,101705.44
2019-03-26T03:28:56.292Z,101701.59
2019-03-26T03:31:29.676Z,101703.05
2019-03-26T03:34:03.213Z,101703.05
2019-03-26T03:36:36.633Z,101702.59
2019-03-26T03:39:10.079Z,101708.47
2019-03-26T03:41:43.609Z,101703.66
2019-03-26T03:44:17.072Z,101700.91
2019-03-26T03:46:51.253Z,101700.91
2019-03-26T03:49:26.119Z,101703.16
2019-03-26T03:52:01.219Z,101703.16
2019-03-26T03:54:35.122Z,101703.98
2019-03-26T03:57:09.006Z,101711.08
2019-03-26T03:59:44.308Z,101710.69
2019-03-26T04:02:18.048Z,101697.87
2019-03-26T04:04:51.474Z,101697.48
2019-03-26T04:07:25.087Z,101689.86
2019-03-26T04:09:58.672Z,101689.86
2019-03-26T04:12:32.348Z,101679.69
2019-03-26T04:15:06.577Z,101680.66
2019-03-26T04:17:40.113Z,101686.66
2019-03-26T04:20:13.607Z,101695.14
2019-03-26T04:22:47.135Z,101695.14
2019-03-26T04:25:20.560Z,101698.98
2019-03-26T04:27:54.008Z,101698.98
2019-03-26T04:30:29.854Z,101702.41
2019-03-26T04:33:03.304Z,101693.84
2019-03-26T04:35:36.806Z,101705.28
2019-03-26T04:38:10.157Z,101696.80
2019-03-26T04:40:43.605Z,101695.63
2019-03-26T04:43:18.948Z,101690.94
2019-03-26T04:45:52.115Z,101680.76
2019-03-26T04:48:25.576Z,101696.11
2019-03-26T04:50:59.117Z,101693.59
2019-03-26T04:53:34.211Z,101695.30
2019-03-26T04:56:07.785Z,101705.08
2019-03-26T04:58:43.888Z,101705.08
2019-03-26T05:01:16.386Z,101690.20
2019-03-26T05:03:49.821Z,101689.81
2019-03-26T05:06:37.182Z,101703.38
2019-03-26T05:08:59.099Z,101708.47
2019-03-26T05:11:32.436Z,101708.47
2019-03-26T05:14:05.826Z,101705.08
2019-03-26T05:16:39.262Z,101694.90
2019-03-26T05:19:12.627Z,101686.36
2019-03-26T05:21:46.062Z,101702.11
2019-03-26T05:24:19.527Z,101693.17
2019-03-26T05:26:52.885Z,101702.47
2019-03-26T05:29:26.427Z,101694.48
2019-03-26T05:31:59.851Z,101699.17
2019-03-26T05:34:33.299Z,101695.30
2019-03-26T05:37:06.736Z,101701.59
2019-03-26T05:39:40.284Z,101693.14
2019-03-26T05:42:13.765Z,101699.14
2019-03-26T05:44:47.249Z,101694.16
2019-03-26T05:47:20.739Z,101685.31
2019-03-26T05:49:54.185Z,101682.73
2019-03-26T05:52:27.661Z,101677.78
2019-03-26T05:55:01.121Z,101676.84
2019-03-26T05:57:35.179Z,101685.81
2019-03-26T06:00:12.816Z,101692.70
2019-03-26T06:02:46.320Z,101692.70
2019-03-26T06:05:19.853Z,101694.44
2019-03-26T06:07:53.430Z,101684.61
2019-03-26T06:10:26.995Z,101698.23
2019-03-26T06:13:00.438Z,101696.55
2019-03-26T06:15:34.035Z,101698.32
2019-03-26T06:18:07.550Z,101701.70
2019-03-26T06:20:41.033Z,101700.50
2019-03-26T06:23:14.554Z,101698.86
2019-03-26T06:25:48.011Z,101695.50
2019-03-26T06:28:23.089Z,101686.28
2019-03-26T06:30:56.560Z,101690.56
2019-03-26T06:33:30.060Z,101690.61
2019-03-26T06:36:03.682Z,101687.23
2019-03-26T06:38:37.094Z,101677.87
2019-03-26T06:41:10.639Z,101674.47
2019-03-26T06:43:44.210Z,101688.09
2019-03-26T06:46:17.657Z,101691.88
2019-03-26T06:48:51.070Z,101694.04
2019-03-26T06:51:24.656Z,101688.88
2019-03-26T06:53:58.069Z,101683.82
2019-03-26T06:56:31.516Z,101683.80
2019-03-26T06:59:06.328Z,101682.95
2019-03-26T07:01:39.774Z,101690.16
2019-03-26T07:04:13.361Z,101693.15
2019-03-26T07:06:46.897Z,101687.62
2019-03-26T07:09:20.364Z,101680.41
2019-03-26T07:11:53.828Z,101690.64
2019-03-26T07:14:27.316Z,101686.40
2019-03-26T07:17:00.846Z,101705.08
2019-03-26T07:19:34.351Z,101703.23
2019-03-26T07:22:07.811Z,101694.73
2019-03-26T07:24:41.226Z,101698.72
2019-03-26T07:27:14.742Z,101692.34
2019-03-26T07:29:48.239Z,101697.58
2019-03-26T07:32:21.728Z,101691.65
2019-03-26T07:34:55.165Z,101703.57
2019-03-26T07:37:28.575Z,101709.66
2019-03-26T07:40:01.992Z,101712.66
2019-03-26T07:42:35.466Z,101711.80
2019-03-26T07:45:09.165Z,101713.08
2019-03-26T07:47:42.641Z,101703.63
2019-03-26T07:50:16.056Z,101710.37
2019-03-26T07:52:49.687Z,101705.48
2019-03-26T07:55:23.167Z,101704.41
2019-03-26T07:57:56.685Z,101707.53
2019-03-26T08:00:35.152Z,101707.94
2019-03-26T08:03:08.762Z,101719.27
2019-03-26T08:05:42.392Z,101714.42
2019-03-26T08:08:15.857Z,101712.82
2019-03-26T08:10:49.270Z,101703.41
2019-03-26T08:13:22.661Z,101700.28
2019-03-26T08:15:56.109Z,101703.47
2019-03-26T08:18:29.631Z,101697.72
2019-03-26T08:21:03.138Z,101705.63
2019-03-26T08:23:38.470Z,101694.62
2019-03-26T08:26:11.672Z,101705.35
2019-03-26T08:28:45.122Z,101696.73
2019-03-26T08:31:18.475Z,101689.48
2019-03-26T08:33:51.889Z,101694.36
2019-03-26T08:36:25.428Z,101707.75
2019-03-26T08:38:58.965Z,101692.48
2019-03-26T08:41:32.458Z,101681.75
2019-03-26T08:44:05.904Z,101672.16
2019-03-26T08:46:39.330Z,101671.13
2019-03-26T08:49:14.201Z,101668.94
2019-03-26T08:51:47.870Z,101662.50
2019-03-26T08:54:21.326Z,101672.13
2019-03-26T08:56:54.877Z,101660.03
2019-03-26T08:59:28.427Z,101659.34
2019-03-26T09:02:01.992Z,101652.81
2019-03-26T09:04:35.403Z,101648.49
2019-03-26T09:07:11.022Z,101638.61
2019-03-26T09:09:44.136Z,101637.25
2019-03-26T09:12:17.614Z,101642.27
2019-03-26T09:14:51.110Z,101645.47
2019-03-26T09:17:24.581Z,101643.34
2019-03-26T09:19:58.004Z,101650.80
2019-03-26T09:22:31.450Z,101653.44
2019-03-26T09:25:06.333Z,101662.02
2019-03-26T09:27:39.787Z,101658.66
2019-03-26T09:30:13.502Z,101654.95
2019-03-26T09:32:46.906Z,101662.64
2019-03-26T09:35:20.354Z,101663.30
2019-03-26T09:37:53.817Z,101664.77
2019-03-26T09:40:27.272Z,101673.42
2019-03-26T09:43:00.726Z,101680.33
2019-03-26T09:45:34.138Z,101690.42
2019-03-26T09:48:07.606Z,101691.39
2019-03-26T09:50:40.953Z,101685.89
2019-03-26T09:53:14.328Z,101679.91
2019-03-26T09:55:47.754Z,101683.25
2019-03-26T09:58:21.205Z,101684.45
2019-03-26T10:00:54.784Z,101690.54
2019-03-26T10:03:28.345Z,101686.26
2019-03-26T10:06:01.904Z,101669.84
2019-03-26T10:08:35.393Z,101669.16
2019-03-26T10:11:08.903Z,101651.61
2019-03-26T10:13:42.439Z,101658.57
2019-03-26T10:16:16.412Z,101652.70
2019-03-26T10:18:49.797Z,101646.08
2019-03-26T10:21:23.143Z,101651.56
2019-03-26T10:23:57.006Z,101635.93
2019-03-26T10:26:30.351Z,101629.38
2019-03-26T10:29:18.718Z,101627.42
2019-03-26T10:31:39.043Z,101623.64
2019-03-26T10:34:12.494Z,101623.94
2019-03-26T10:36:46.240Z,101611.42
2019-03-26T10:39:19.607Z,101607.56
2019-03-26T10:41:53.044Z,101603.72
2019-03-26T10:44:26.527Z,101598.30
2019-03-26T10:47:00.073Z,101594.19
2019-03-26T10:49:33.512Z,101608.41
2019-03-26T10:52:07.061Z,101619.78
2019-03-26T10:54:40.542Z,101636.36
2019-03-26T10:57:13.885Z,101632.44
2019-03-26T10:59:47.294Z,101628.62
2019-03-26T11:02:20.661Z,101644.25
2019-03-26T11:04:54.111Z,101644.82
2019-03-26T11:07:27.646Z,101644.55
2019-03-26T11:10:01.072Z,101646.23
2019-03-26T11:12:34.535Z,101653.22
2019-03-26T11:15:09.149Z,101645.71
2019-03-26T11:17:42.716Z,101635.88
2019-03-26T11:20:16.301Z,101629.08
2019-03-26T11:22:49.792Z,101629.80
2019-03-26T11:25:23.310Z,101618.03
2019-03-26T11:27:56.767Z,101617.11
2019-03-26T11:30:30.219Z,101614.00
2019-03-26T11:33:03.779Z,101604.26
2019-03-26T11:35:37.229Z,101601.30
2019-03-26T11:38:10.821Z,101608.33
2019-03-26T11:40:44.350Z,101612.77
2019-03-26T11:43:17.834Z,101614.94
2019-03-26T11:45:51.274Z,101611.00
2019-03-26T11:48:24.723Z,101621.75
2019-03-26T11:50:58.065Z,101618.38
2019-03-26T11:53:31.523Z,101621.41
2019-03-26T11:56:05.045Z,101618.71
2019-03-26T11:58:38.498Z,101609.19
2019-03-26T12:01:11.981Z,101611.62
2019-03-26T12:03:45.357Z,101617.36
2019-03-26T12:06:18.791Z,101610.88
2019-03-26T12:08:52.343Z,101621.77
2019-03-26T12:11:25.788Z,101615.24
2019-03-26T12:13:59.301Z,101627.77
2019-03-26T12:16:32.648Z,101624.48
2019-03-26T12:19:06.163Z,101622.86
2019-03-26T12:21:39.569Z,101630.14
2019-03-26T12:24:13.042Z,101634.69
2019-03-26T12:26:46.514Z,101630.55
2019-03-26T12:29:19.961Z,101625.52
2019-03-26T12:31:53.409Z,101620.19
2019-03-26T12:34:26.797Z,101627.30
2019-03-26T12:37:00.300Z,101626.39
2019-03-26T12:39:33.726Z,101630.37
2019-03-26T12:42:07.259Z,101628.62
2019-03-26T12:44:40.665Z,101631.09
2019-03-26T12:47:14.005Z,101632.50
2019-03-26T12:49:47.435Z,101629.83
2019-03-26T12:52:20.913Z,101623.89
2019-03-26T12:54:54.414Z,101628.80
2019-03-26T12:57:27.878Z,101628.11
2019-03-26T13:00:01.457Z,101637.45
2019-03-26T13:02:36.105Z,101627.11
2019-03-26T13:05:09.771Z,101631.29
2019-03-26T13:07:43.136Z,101636.59
2019-03-26T13:10:16.741Z,101635.74
2019-03-26T13:12:50.170Z,101635.02
2019-03-26T13:15:23.537Z,101643.31
2019-03-26T13:17:57.063Z,101651.16
2019-03-26T13:20:30.547Z,101636.28
2019-03-26T13:23:04.061Z,101644.92
2019-03-26T13:25:37.519Z,101638.64
2019-03-26T13:28:11.013Z,101652.17
2019-03-26T13:30:44.430Z,101656.97
2019-03-26T13:33:17.877Z,101651.34
2019-03-26T13:35:51.284Z,101651.72
2019-03-26T13:38:24.763Z,101652.62
2019-03-26T13:40:58.137Z,101648.91
2019-03-26T13:43:31.609Z,101654.52
2019-03-26T13:46:05.053Z,101652.83
2019-03-26T13:48:38.504Z,101647.00
2019-03-26T13:51:13.415Z,101658.39
2019-03-26T13:53:46.841Z,101657.84
2019-03-26T13:56:20.257Z,101665.13
2019-03-26T13:58:53.708Z,101673.81
2019-03-26T14:01:27.193Z,101677.37
2019-03-26T14:04:00.667Z,101669.62
2019-03-26T14:06:34.069Z,101684.47
2019-03-26T14:09:08.133Z,101670.44
2019-03-26T14:11:41.540Z,101668.70
2019-03-26T14:14:14.995Z,101673.38
2019-03-26T14:16:48.408Z,101660.52
2019-03-26T14:19:21.792Z,101662.50
2019-03-26T14:21:55.231Z,101671.79
2019-03-26T14:24:28.719Z,101677.41
2019-03-26T14:27:02.174Z,101671.47
2019-03-26T14:29:35.703Z,101662.94
2019-03-26T14:32:09.181Z,101672.72
2019-03-26T14:34:42.586Z,101672.45
2019-03-26T14:37:16.131Z,101671.20
2019-03-26T14:39:49.545Z,101690.52
2019-03-26T14:42:22.960Z,101686.05
2019-03-26T14:44:56.495Z,101693.66
2019-03-26T14:47:29.839Z,101687.37
2019-03-26T14:50:03.647Z,101701.80
2019-03-26T14:52:37.065Z,101693.66
2019-03-26T14:55:10.509Z,101688.75
2019-03-26T14:57:43.969Z,101697.86
2019-03-26T15:00:17.566Z,101702.16
2019-03-26T15:02:51.054Z,101687.80
2019-03-26T15:05:24.525Z,101695.28
2019-03-26T15:07:57.870Z,101701.71
2019-03-26T15:10:31.318Z,101702.79
2019-03-26T15:13:04.725Z,101695.59
2019-03-26T15:15:40.625Z,101696.97
2019-03-26T15:18:14.178Z,101698.77
2019-03-26T15:20:47.759Z,101699.41
2019-03-26T15:23:21.251Z,101703.73
2019-03-26T15:25:54.701Z,101700.86
2019-03-26T15:28:28.220Z,101699.84
2019-03-26T15:31:01.776Z,101702.08
2019-03-26T15:33:35.265Z,101702.58
2019-03-26T15:36:08.644Z,101701.69
2019-03-26T15:38:42.062Z,101710.24
2019-03-26T15:41:21.397Z,101698.61
2019-03-26T15:43:50.523Z,101706.38
2019-03-26T15:46:23.981Z,101713.09
2019-03-26T15:48:57.478Z,101718.65
2019-03-26T15:51:30.943Z,101716.86
2019-03-26T15:54:04.379Z,101717.22
2019-03-26T15:56:37.753Z,101721.28
2019-03-26T15:59:11.098Z,101724.86
2019-03-26T16:01:44.584Z,101731.20
2019-03-26T16:04:17.891Z,101734.16
2019-03-26T16:06:51.427Z,101732.58
2019-03-26T16:09:24.928Z,101726.09
2019-03-26T16:12:00.035Z,101732.16
2019-03-26T16:14:33.591Z,101736.53
2019-03-26T16:17:07.042Z,101734.45
2019-03-26T16:19:40.560Z,101734.41
2019-03-26T16:22:14.092Z,101731.67
2019-03-26T16:24:47.552Z,101732.55
2019-03-26T16:27:20.952Z,101737.24
2019-03-26T16:29:54.357Z,101739.41
2019-03-26T16:32:27.772Z,101740.39
2019-03-26T16:35:01.205Z,101748.00
2019-03-26T16:37:34.741Z,101751.45
2019-03-26T16:40:08.406Z,101762.65
2019-03-26T16:42:41.840Z,101762.16
2019-03-26T16:45:15.367Z,101758.28
2019-03-26T16:47:48.764Z,101766.05
2019-03-26T16:50:22.216Z,101769.94
2019-03-26T16:52:55.703Z,101772.12
2019-03-26T16:55:29.107Z,101776.86
2019-03-26T16:58:02.471Z,101772.25
2019-03-26T17:00:36.017Z,101774.38
2019-03-26T17:03:09.449Z,101772.70
2019-03-26T17:05:42.818Z,101777.82
2019-03-26T17:08:16.308Z,101777.33
2019-03-26T17:10:49.735Z,101776.48
2019-03-26T17:13:23.184Z,101774.41
2019-03-26T17:15:56.633Z,101762.03
2019-03-26T17:18:30.079Z,101771.44
2019-03-26T17:21:03.591Z,101766.30
2019-03-26T17:23:37.022Z,101773.17
2019-03-26T17:26:10.871Z,101772.30
2019-03-26T17:28:44.289Z,101773.13
2019-03-26T17:31:17.722Z,101779.97
2019-03-26T17:33:51.272Z,101775.70
2019-03-26T17:36:24.771Z,101781.27
2019-03-26T17:38:58.180Z,101781.64
2019-03-26T17:41:31.644Z,101772.77
2019-03-26T17:44:06.373Z,101781.69
2019-03-26T17:46:39.962Z,101786.38
2019-03-26T17:49:13.473Z,101778.27
2019-03-26T17:51:46.946Z,101782.94
2019-03-26T17:54:20.283Z,101779.16
2019-03-26T17:56:53.728Z,101787.23
2019-03-26T17:59:27.134Z,101782.98
2019-03-26T18:02:00.727Z,101785.95
2019-03-26T18:04:34.127Z,101790.20
2019-03-26T18:07:07.517Z,101784.26
2019-03-26T18:09:40.948Z,101784.71
2019-03-26T18:12:14.519Z,101788.09
2019-03-26T18:14:47.975Z,101785.55
2019-03-26T18:17:21.492Z,101790.22
2019-03-26T18:19:54.909Z,101795.33
2019-03-26T18:22:28.356Z,101790.68
2019-03-26T18:25:01.704Z,101794.06
2019-03-26T18:27:35.181Z,101796.63
2019-03-26T18:30:08.862Z,101791.09
2019-03-26T18:32:42.391Z,101802.59
2019-03-26T18:35:15.877Z,101800.47
2019-03-26T18:37:49.426Z,101805.15
2019-03-26T18:40:22.811Z,101809.83
2019-03-26T18:42:56.348Z,101818.77
2019-03-26T18:45:29.768Z,101826.87
2019-03-26T18:48:03.287Z,101840.49
2019-03-26T18:50:36.714Z,101839.21
2019-03-26T18:53:10.150Z,101839.19
2019-03-26T18:55:43.630Z,101839.64
2019-03-26T18:58:17.159Z,101839.62
2019-03-26T19:00:50.657Z,101834.52
2019-03-26T19:03:24.082Z,101853.26
2019-03-26T19:05:57.546Z,101845.59
2019-03-26T19:08:30.902Z,101844.73
2019-03-26T19:11:04.434Z,101854.95
2019-03-26T19:13:37.846Z,101848.98
2019-03-26T19:16:11.314Z,101856.67
2019-03-26T19:18:44.729Z,101861.34
2019-03-26T19:21:18.122Z,101855.80
2019-03-26T19:24:03.353Z,101856.66
2019-03-26T19:26:27.471Z,101858.80
2019-03-26T19:29:01.312Z,101859.64
2019-03-26T19:31:34.708Z,101863.06
2019-03-26T19:34:08.321Z,101873.71
2019-03-26T19:36:41.801Z,101872.84
2019-03-26T19:39:15.314Z,101880.95
2019-03-26T19:41:48.810Z,101880.95
2019-03-26T19:44:22.251Z,101882.62
2019-03-26T19:46:55.797Z,101877.96
2019-03-26T19:49:29.231Z,101886.02
2019-03-26T19:52:02.860Z,101884.77
2019-03-26T19:54:36.213Z,101887.33
2019-03-26T19:57:09.586Z,101894.56
2019-03-26T19:59:43.170Z,101890.31
2019-03-26T20:02:16.616Z,101888.61
2019-03-26T20:04:50.119Z,101898.81
2019-03-26T20:07:23.914Z,101899.69
2019-03-26T20:09:57.262Z,101899.69
2019-03-26T20:12:30.657Z,101900.96
2019-03-26T20:15:06.671Z,101907.77
2019-03-26T20:17:40.117Z,101913.31
2019-03-26T20:20:14.313Z,101920.54
2019-03-26T20:22:49.293Z,101916.29
2019-03-26T20:25:22.686Z,101923.55
2019-03-26T20:27:56.431Z,101925.25
2019-03-26T20:30:29.917Z,101925.66
2019-03-26T20:33:03.364Z,101920.13
2019-03-26T20:35:37.034Z,101928.22
2019-03-26T20:38:10.577Z,101930.75
2019-03-26T20:40:44.075Z,101926.09
2019-03-26T20:43:17.660Z,101926.52
2019-03-26T20:45:51.468Z,101923.95
2019-03-26T20:48:25.270Z,101917.14
2019-03-26T20:50:58.754Z,101926.50
2019-03-26T20:53:32.224Z,101921.84
2019-03-26T20:56:06.157Z,101923.97
2019-03-26T20:58:39.603Z,101929.93
2019-03-26T21:01:12.963Z,101926.92
2019-03-26T21:03:46.512Z,101924.81
2019-03-26T21:06:20.009Z,101935.88
2019-03-26T21:08:53.391Z,101942.71
2019-03-26T21:11:26.813Z,101943.13
2019-03-26T21:14:00.255Z,101948.65
2019-03-26T21:16:33.676Z,101954.22
2019-03-26T21:19:07.188Z,101952.52
2019-03-26T21:21:40.686Z,101954.20
2019-03-26T21:24:14.071Z,101947.80
2019-03-26T21:26:47.589Z,101949.50
2019-03-26T21:29:21.065Z,101951.64
2019-03-26T21:31:54.525Z,101957.60
2019-03-26T21:34:30.764Z,101947.36
2019-03-26T21:37:03.349Z,101957.12
2019-03-26T21:39:36.931Z,101954.97
2019-03-26T21:42:10.449Z,101961.38
2019-03-26T21:44:43.866Z,101967.28
2019-03-26T21:47:17.267Z,101976.66
2019-03-26T21:49:50.839Z,101974.53
2019-03-26T21:52:24.215Z,101975.73
2019-03-26T21:54:57.560Z,101974.88
2019-03-26T21:57:31.180Z,101986.80
2019-03-26T22:00:07.203Z,101977.37
2019-03-26T22:02:40.704Z,101973.53
2019-03-26T22:05:14.184Z,101976.52
2019-03-26T22:07:47.580Z,101976.91
2019-03-26T22:10:20.963Z,101973.52
2019-03-26T22:12:54.426Z,101980.77
2019-03-26T22:15:27.904Z,101985.45
2019-03-26T22:18:01.356Z,101990.12
2019-03-26T22:20:34.861Z,101994.78
2019-03-26T22:23:08.478Z,101996.45
2019-03-26T22:25:41.915Z,101985.81
2019-03-26T22:28:15.291Z,101990.08
2019-03-26T22:30:48.612Z,101996.02
2019-03-26T22:33:22.084Z,101999.82
2019-03-26T22:35:56.158Z,101996.81
2019-03-26T22:38:29.888Z,101996.83
2019-03-26T22:41:03.328Z,102003.59
2019-03-26T22:43:36.792Z,102006.14
2019-03-26T22:46:10.192Z,102009.09
2019-03-26T22:48:43.655Z,102009.91
2019-03-26T22:51:17.071Z,102015.81
2019-03-26T22:53:50.457Z,102012.81
2019-03-26T22:56:23.814Z,102017.08
2019-03-26T22:58:57.272Z,102023.03
2019-03-26T23:01:30.686Z,102014.92
2019-03-26T23:04:04.152Z,102020.02
2019-03-26T23:06:37.635Z,102022.17
2019-03-26T23:09:11.182Z,102029.83
2019-03-26T23:11:44.661Z,102025.58
2019-03-26T23:14:18.178Z,102025.63
2019-03-26T23:16:51.665Z,102023.91
2019-03-26T23:19:25.183Z,102019.25
2019-03-26T23:21:58.577Z,102025.63
2019-03-26T23:24:32.048Z,102026.83
2019-03-26T23:27:05.855Z,102026.80
2019-03-26T23:29:39.250Z,102037.42
2019-03-26T23:32:12.673Z,102028.47
2019-03-26T23:34:46.127Z,102036.57
2019-03-26T23:37:19.570Z,102040.00
2019-03-26T23:39:52.967Z,102040.48
2019-03-26T23:42:26.308Z,102037.50
2019-03-26T23:44:59.758Z,102037.50
2019-03-26T23:47:33.185Z,102037.40
2019-03-26T23:50:07.523Z,102043.77
2019-03-26T23:52:40.897Z,102048.53
2019-03-26T23:55:14.411Z,102038.86
2019-03-26T23:57:47.770Z,102043.53
